Stowe, VT

8:23 PM EST on December 24, 2014 (GMT -0500)
Morrisville Stowe State | Change Station
CLOSE
Current Station
Airport
Location: Morrisville,
Elevation: 732 ft
Nearby Weather Stations
Active Advisory: Areal Flood Watch

Elev 732 ft 44.53 °N, 72.61 °W | Updated 29 minutes ago

Rain
Rain
40 °F
Feels Like 38 °F
N
4
Wind Variable Wind from Variable

Today
High -- | Low -- °F
--% Chance of Precip.
Yesterday
High -- | Low -- °F
Precip. -- in
7:25 AM 4:15 PM
Waxing Crescent, 12% visible
Pressure 29.65 in
Visibility 10.0 miles
Clouds Overcast 2500 ft
Windchill 38 °F
Dew Point 37 °F
Humidity 89%
Rainfall 0.10 in
Snow Depth Not available.
UV 0 out of 12
Pollen .10 out of 12
Air Quality Not available.
Flu Activity Not available.
METAR KMVL 250054Z AUTO VRB03KT 10SM -RA OVC025 04/03 A2963 RMK AO2 PRESFR SLP038 P0000 T00440028 TSNO

More Conditions Fewer Conditions

Pressure 29.65 in
Visibility 10.0 miles
Clouds Overcast 2500 ft
Windchill 38 °F
Dew Point 37 °F
Humidity 89%
Rainfall 0.10 in
Snow Depth Not available.
UV 0 out of 12
Pollen .10 out of 12
Air Quality Not available.
Flu Activity Not available.
METAR KMVL 250054Z AUTO VRB03KT 10SM -RA OVC025 04/03 A2963 RMK AO2 PRESFR SLP038 P0000 T00440028 TSNO

More Conditions Fewer Conditions

10-Day Weather Forecast

Almanac

Astronomy

Dec. 24, 2014 Rise Set
Actual Time
Civil Twilight
Nautical Twilight
Astronomical Twilight
Moon
Length of Visible Light
Length of Day
Tomorrow will be .
, % of the Moon is Illuminated

Today's Extremes

State Highs State Lows

Community

WunderPhotos

Upload Photos

1,780,203 photos uploaded!

WunderBlogs® & News

Nearby

Air Quality

  Air Quality AQ Index Pollutant
Not available.

Snow Depth

Station Depth Elevation

Earthquake Activity

City Distance Mag. Time & Date
Minimum magnitude displayed is 2.5.

Coastal Water Temperatures

Place Temperature

Nearby Weather Stations